sensor_id;sensor_type;location;lat;lon;timestamp;P1;durP1;ratioP1;P2;durP2;ratioP2
54177;SDS011;40085;53.004;6.770;2023-07-22T00:00:43;10.73;;;4.65;;
54177;SDS011;40085;53.004;6.770;2023-07-22T00:03:08;10.73;;;5.18;;
54177;SDS011;40085;53.004;6.770;2023-07-22T00:05:34;10.60;;;5.20;;
54177;SDS011;40085;53.004;6.770;2023-07-22T00:07:59;9.15;;;4.80;;
54177;SDS011;40085;53.004;6.770;2023-07-22T00:10:25;10.80;;;5.47;;
54177;SDS011;40085;53.004;6.770;2023-07-22T00:12:51;9.93;;;5.35;;
54177;SDS011;40085;53.004;6.770;2023-07-22T00:15:16;10.13;;;4.82;;
54177;SDS011;40085;53.004;6.770;2023-07-22T00:17:42;7.30;;;5.25;;
54177;SDS011;40085;53.004;6.770;2023-07-22T00:20:08;10.45;;;4.63;;
54177;SDS011;40085;53.004;6.770;2023-07-22T00:22:39;10.20;;;5.32;;
54177;SDS011;40085;53.004;6.770;2023-07-22T00:25:05;7.40;;;4.65;;
54177;SDS011;40085;53.004;6.770;2023-07-22T00:27:39;10.43;;;4.65;;
54177;SDS011;40085;53.004;6.770;2023-07-22T00:30:07;8.23;;;4.45;;
54177;SDS011;40085;53.004;6.770;2023-07-22T00:32:34;6.97;;;4.63;;
54177;SDS011;40085;53.004;6.770;2023-07-22T00:35:02;8.32;;;4.80;;
54177;SDS011;40085;53.004;6.770;2023-07-22T00:37:31;9.35;;;4.55;;
54177;SDS011;40085;53.004;6.770;2023-07-22T00:39:57;11.68;;;4.68;;
54177;SDS011;40085;53.004;6.770;2023-07-22T00:42:23;9.82;;;5.57;;
54177;SDS011;40085;53.004;6.770;2023-07-22T00:44:49;11.05;;;5.40;;
54177;SDS011;40085;53.004;6.770;2023-07-22T00:47:15;10.50;;;5.70;;
54177;SDS011;40085;53.004;6.770;2023-07-22T00:49:42;8.40;;;4.45;;
54177;SDS011;40085;53.004;6.770;2023-07-22T00:52:08;8.30;;;5.18;;
54177;SDS011;40085;53.004;6.770;2023-07-22T00:54:33;10.10;;;4.97;;
54177;SDS011;40085;53.004;6.770;2023-07-22T00:56:59;8.35;;;4.85;;
54177;SDS011;40085;53.004;6.770;2023-07-22T00:59:25;8.68;;;4.63;;
54177;SDS011;40085;53.004;6.770;2023-07-22T01:01:50;7.68;;;5.00;;
54177;SDS011;40085;53.004;6.770;2023-07-22T01:04:16;8.93;;;5.40;;
54177;SDS011;40085;53.004;6.770;2023-07-22T01:06:45;6.70;;;4.45;;
54177;SDS011;40085;53.004;6.770;2023-07-22T01:09:11;8.75;;;4.78;;
54177;SDS011;40085;53.004;6.770;2023-07-22T01:11:36;9.20;;;5.43;;
54177;SDS011;40085;53.004;6.770;2023-07-22T01:14:02;11.43;;;5.57;;
54177;SDS011;40085;53.004;6.770;2023-07-22T01:16:28;11.25;;;5.45;;
54177;SDS011;40085;53.004;6.770;2023-07-22T01:18:55;10.02;;;5.10;;
54177;SDS011;40085;53.004;6.770;2023-07-22T01:21:22;9.57;;;4.85;;
54177;SDS011;40085;53.004;6.770;2023-07-22T01:23:48;9.82;;;5.05;;
54177;SDS011;40085;53.004;6.770;2023-07-22T01:26:15;10.95;;;5.53;;
54177;SDS011;40085;53.004;6.770;2023-07-22T01:28:40;9.77;;;4.72;;
54177;SDS011;40085;53.004;6.770;2023-07-22T01:31:06;7.15;;;5.10;;
54177;SDS011;40085;53.004;6.770;2023-07-22T01:33:32;9.85;;;5.32;;
54177;SDS011;40085;53.004;6.770;2023-07-22T01:35:58;11.25;;;5.10;;
54177;SDS011;40085;53.004;6.770;2023-07-22T01:38:23;9.98;;;4.78;;
54177;SDS011;40085;53.004;6.770;2023-07-22T01:40:49;11.35;;;5.25;;
54177;SDS011;40085;53.004;6.770;2023-07-22T01:43:14;10.15;;;5.10;;
54177;SDS011;40085;53.004;6.770;2023-07-22T01:45:40;9.75;;;5.05;;
54177;SDS011;40085;53.004;6.770;2023-07-22T01:48:07;7.35;;;4.43;;
54177;SDS011;40085;53.004;6.770;2023-07-22T01:50:33;8.80;;;5.18;;
54177;SDS011;40085;53.004;6.770;2023-07-22T01:52:58;7.85;;;4.68;;
54177;SDS011;40085;53.004;6.770;2023-07-22T01:55:24;8.80;;;4.82;;
54177;SDS011;40085;53.004;6.770;2023-07-22T01:57:50;10.00;;;5.05;;
54177;SDS011;40085;53.004;6.770;2023-07-22T02:00:15;8.15;;;4.95;;
54177;SDS011;40085;53.004;6.770;2023-07-22T02:02:41;8.45;;;4.80;;
54177;SDS011;40085;53.004;6.770;2023-07-22T02:05:07;10.40;;;5.30;;
54177;SDS011;40085;53.004;6.770;2023-07-22T02:07:35;9.18;;;4.57;;
54177;SDS011;40085;53.004;6.770;2023-07-22T02:10:01;10.30;;;4.75;;
54177;SDS011;40085;53.004;6.770;2023-07-22T02:12:26;8.73;;;4.82;;
54177;SDS011;40085;53.004;6.770;2023-07-22T02:14:52;8.93;;;4.90;;
54177;SDS011;40085;53.004;6.770;2023-07-22T02:17:18;10.02;;;4.97;;
54177;SDS011;40085;53.004;6.770;2023-07-22T02:19:43;7.97;;;4.50;;
54177;SDS011;40085;53.004;6.770;2023-07-22T02:22:09;9.10;;;4.97;;
54177;SDS011;40085;53.004;6.770;2023-07-22T02:24:34;9.18;;;4.78;;
54177;SDS011;40085;53.004;6.770;2023-07-22T02:27:00;9.60;;;4.85;;
54177;SDS011;40085;53.004;6.770;2023-07-22T02:29:26;8.73;;;5.03;;
54177;SDS011;40085;53.004;6.770;2023-07-22T02:31:51;7.82;;;4.32;;
54177;SDS011;40085;53.004;6.770;2023-07-22T02:34:17;9.10;;;4.88;;
54177;SDS011;40085;53.004;6.770;2023-07-22T02:36:42;12.32;;;5.60;;
54177;SDS011;40085;53.004;6.770;2023-07-22T02:39:08;8.73;;;5.13;;
54177;SDS011;40085;53.004;6.770;2023-07-22T02:41:36;10.02;;;5.40;;
54177;SDS011;40085;53.004;6.770;2023-07-22T02:44:01;9.32;;;4.95;;
54177;SDS011;40085;53.004;6.770;2023-07-22T02:46:28;11.02;;;5.72;;
54177;SDS011;40085;53.004;6.770;2023-07-22T02:48:54;7.95;;;5.20;;
54177;SDS011;40085;53.004;6.770;2023-07-22T02:51:20;8.95;;;5.18;;
54177;SDS011;40085;53.004;6.770;2023-07-22T02:53:45;9.85;;;4.68;;
54177;SDS011;40085;53.004;6.770;2023-07-22T02:56:12;10.23;;;5.22;;
54177;SDS011;40085;53.004;6.770;2023-07-22T02:58:38;8.30;;;4.72;;
54177;SDS011;40085;53.004;6.770;2023-07-22T03:01:04;7.65;;;4.55;;
54177;SDS011;40085;53.004;6.770;2023-07-22T03:03:30;10.55;;;5.72;;
54177;SDS011;40085;53.004;6.770;2023-07-22T03:05:58;9.55;;;5.00;;
54177;SDS011;40085;53.004;6.770;2023-07-22T03:08:24;8.93;;;4.70;;
54177;SDS011;40085;53.004;6.770;2023-07-22T03:10:50;9.15;;;5.13;;
54177;SDS011;40085;53.004;6.770;2023-07-22T03:13:15;10.48;;;4.55;;
54177;SDS011;40085;53.004;6.770;2023-07-22T03:15:41;10.23;;;4.93;;
54177;SDS011;40085;53.004;6.770;2023-07-22T03:18:07;10.80;;;5.18;;
54177;SDS011;40085;53.004;6.770;2023-07-22T03:20:35;8.60;;;4.90;;
54177;SDS011;40085;53.004;6.770;2023-07-22T03:23:01;9.43;;;5.13;;
54177;SDS011;40085;53.004;6.770;2023-07-22T03:25:27;10.13;;;5.38;;
54177;SDS011;40085;53.004;6.770;2023-07-22T03:27:53;10.20;;;5.68;;
54177;SDS011;40085;53.004;6.770;2023-07-22T03:30:21;10.77;;;5.28;;
54177;SDS011;40085;53.004;6.770;2023-07-22T03:32:47;9.38;;;4.68;;
54177;SDS011;40085;53.004;6.770;2023-07-22T03:35:15;9.57;;;4.75;;
54177;SDS011;40085;53.004;6.770;2023-07-22T03:37:41;10.27;;;5.60;;
54177;SDS011;40085;53.004;6.770;2023-07-22T03:40:08;8.52;;;5.35;;
54177;SDS011;40085;53.004;6.770;2023-07-22T03:42:51;9.20;;;5.25;;
54177;SDS011;40085;53.004;6.770;2023-07-22T03:45:18;11.40;;;6.10;;
54177;SDS011;40085;53.004;6.770;2023-07-22T03:47:45;10.80;;;5.47;;
54177;SDS011;40085;53.004;6.770;2023-07-22T03:50:11;9.60;;;6.00;;
54177;SDS011;40085;53.004;6.770;2023-07-22T03:52:37;15.52;;;6.47;;
54177;SDS011;40085;53.004;6.770;2023-07-22T03:55:03;9.63;;;5.15;;
54177;SDS011;40085;53.004;6.770;2023-07-22T03:57:30;8.80;;;4.85;;
54177;SDS011;40085;53.004;6.770;2023-07-22T03:59:56;11.00;;;5.18;;
54177;SDS011;40085;53.004;6.770;2023-07-22T04:02:22;10.07;;;5.47;;
54177;SDS011;40085;53.004;6.770;2023-07-22T04:04:50;11.05;;;5.88;;
54177;SDS011;40085;53.004;6.770;2023-07-22T04:07:16;11.00;;;6.10;;
54177;SDS011;40085;53.004;6.770;2023-07-22T04:09:42;11.15;;;5.70;;
54177;SDS011;40085;53.004;6.770;2023-07-22T04:12:08;10.57;;;5.35;;
54177;SDS011;40085;53.004;6.770;2023-07-22T04:14:33;10.40;;;5.22;;
54177;SDS011;40085;53.004;6.770;2023-07-22T04:16:59;9.65;;;5.25;;
54177;SDS011;40085;53.004;6.770;2023-07-22T04:19:24;9.85;;;5.55;;
54177;SDS011;40085;53.004;6.770;2023-07-22T04:21:50;8.25;;;5.40;;
54177;SDS011;40085;53.004;6.770;2023-07-22T04:24:16;13.07;;;5.90;;
54177;SDS011;40085;53.004;6.770;2023-07-22T04:26:42;10.30;;;5.13;;
54177;SDS011;40085;53.004;6.770;2023-07-22T04:29:08;10.52;;;6.22;;
54177;SDS011;40085;53.004;6.770;2023-07-22T04:31:34;10.73;;;5.97;;
54177;SDS011;40085;53.004;6.770;2023-07-22T04:34:00;11.20;;;6.03;;
54177;SDS011;40085;53.004;6.770;2023-07-22T04:36:25;11.52;;;6.25;;
54177;SDS011;40085;53.004;6.770;2023-07-22T04:38:51;10.30;;;5.82;;
54177;SDS011;40085;53.004;6.770;2023-07-22T04:41:17;13.27;;;6.60;;
54177;SDS011;40085;53.004;6.770;2023-07-22T04:43:42;12.48;;;6.38;;
54177;SDS011;40085;53.004;6.770;2023-07-22T04:46:08;12.27;;;6.25;;
54177;SDS011;40085;53.004;6.770;2023-07-22T04:48:33;12.63;;;6.60;;
54177;SDS011;40085;53.004;6.770;2023-07-22T04:50:59;12.15;;;7.07;;
54177;SDS011;40085;53.004;6.770;2023-07-22T04:53:25;11.23;;;6.57;;
54177;SDS011;40085;53.004;6.770;2023-07-22T04:55:51;9.85;;;5.70;;
54177;SDS011;40085;53.004;6.770;2023-07-22T04:58:16;10.20;;;6.22;;
54177;SDS011;40085;53.004;6.770;2023-07-22T05:00:42;11.80;;;6.63;;
54177;SDS011;40085;53.004;6.770;2023-07-22T05:03:08;9.68;;;5.50;;
54177;SDS011;40085;53.004;6.770;2023-07-22T05:05:34;12.32;;;6.07;;
54177;SDS011;40085;53.004;6.770;2023-07-22T05:08:01;10.27;;;6.40;;
54177;SDS011;40085;53.004;6.770;2023-07-22T05:10:27;13.88;;;7.03;;
54177;SDS011;40085;53.004;6.770;2023-07-22T05:12:54;12.35;;;7.43;;
54177;SDS011;40085;53.004;6.770;2023-07-22T05:15:19;11.52;;;6.40;;
54177;SDS011;40085;53.004;6.770;2023-07-22T05:17:45;12.82;;;6.57;;
54177;SDS011;40085;53.004;6.770;2023-07-22T05:20:11;12.80;;;6.50;;
54177;SDS011;40085;53.004;6.770;2023-07-22T05:22:38;12.43;;;7.15;;
54177;SDS011;40085;53.004;6.770;2023-07-22T05:25:05;12.02;;;6.32;;
54177;SDS011;40085;53.004;6.770;2023-07-22T05:27:31;12.27;;;6.88;;
54177;SDS011;40085;53.004;6.770;2023-07-22T05:29:57;12.63;;;7.03;;
54177;SDS011;40085;53.004;6.770;2023-07-22T05:32:23;12.02;;;6.22;;
54177;SDS011;40085;53.004;6.770;2023-07-22T05:34:48;13.18;;;6.47;;
54177;SDS011;40085;53.004;6.770;2023-07-22T05:37:14;10.95;;;6.82;;
54177;SDS011;40085;53.004;6.770;2023-07-22T05:39:39;16.20;;;7.70;;
54177;SDS011;40085;53.004;6.770;2023-07-22T05:42:05;10.75;;;7.07;;
54177;SDS011;40085;53.004;6.770;2023-07-22T05:44:31;14.40;;;7.38;;
54177;SDS011;40085;53.004;6.770;2023-07-22T05:46:57;13.15;;;7.35;;
54177;SDS011;40085;53.004;6.770;2023-07-22T05:49:23;12.55;;;7.43;;
54177;SDS011;40085;53.004;6.770;2023-07-22T05:51:49;14.07;;;7.00;;
54177;SDS011;40085;53.004;6.770;2023-07-22T05:54:14;13.57;;;6.43;;
54177;SDS011;40085;53.004;6.770;2023-07-22T05:56:40;11.32;;;6.80;;
54177;SDS011;40085;53.004;6.770;2023-07-22T05:59:06;10.95;;;7.20;;
54177;SDS011;40085;53.004;6.770;2023-07-22T06:01:32;11.07;;;6.80;;
54177;SDS011;40085;53.004;6.770;2023-07-22T06:03:57;13.30;;;6.90;;
54177;SDS011;40085;53.004;6.770;2023-07-22T06:06:23;11.98;;;6.50;;
54177;SDS011;40085;53.004;6.770;2023-07-22T06:08:49;9.70;;;6.78;;
54177;SDS011;40085;53.004;6.770;2023-07-22T06:11:14;13.93;;;6.57;;
54177;SDS011;40085;53.004;6.770;2023-07-22T06:13:40;14.98;;;6.93;;
54177;SDS011;40085;53.004;6.770;2023-07-22T06:16:06;11.27;;;6.53;;
54177;SDS011;40085;53.004;6.770;2023-07-22T06:18:31;11.35;;;6.85;;
54177;SDS011;40085;53.004;6.770;2023-07-22T06:20:57;10.82;;;6.63;;
54177;SDS011;40085;53.004;6.770;2023-07-22T06:23:22;12.02;;;6.75;;
54177;SDS011;40085;53.004;6.770;2023-07-22T06:25:48;12.52;;;7.32;;
54177;SDS011;40085;53.004;6.770;2023-07-22T06:28:13;11.18;;;6.63;;
54177;SDS011;40085;53.004;6.770;2023-07-22T06:30:39;13.32;;;6.75;;
54177;SDS011;40085;53.004;6.770;2023-07-22T06:33:05;13.35;;;7.25;;
54177;SDS011;40085;53.004;6.770;2023-07-22T06:35:30;10.65;;;6.53;;
54177;SDS011;40085;53.004;6.770;2023-07-22T06:37:56;13.27;;;6.72;;
54177;SDS011;40085;53.004;6.770;2023-07-22T06:40:22;15.68;;;7.03;;
54177;SDS011;40085;53.004;6.770;2023-07-22T06:42:48;11.65;;;6.93;;
54177;SDS011;40085;53.004;6.770;2023-07-22T06:45:14;14.50;;;8.10;;
54177;SDS011;40085;53.004;6.770;2023-07-22T06:47:39;9.38;;;6.32;;
54177;SDS011;40085;53.004;6.770;2023-07-22T06:50:05;14.85;;;7.22;;
54177;SDS011;40085;53.004;6.770;2023-07-22T06:52:31;12.95;;;7.78;;
54177;SDS011;40085;53.004;6.770;2023-07-22T06:54:57;10.88;;;6.07;;
54177;SDS011;40085;53.004;6.770;2023-07-22T06:57:23;12.30;;;7.03;;
54177;SDS011;40085;53.004;6.770;2023-07-22T06:59:51;10.10;;;6.00;;
54177;SDS011;40085;53.004;6.770;2023-07-22T07:02:19;12.88;;;7.07;;
54177;SDS011;40085;53.004;6.770;2023-07-22T07:04:46;11.68;;;6.40;;
54177;SDS011;40085;53.004;6.770;2023-07-22T07:07:12;10.70;;;6.40;;
54177;SDS011;40085;53.004;6.770;2023-07-22T07:09:38;12.77;;;6.78;;
54177;SDS011;40085;53.004;6.770;2023-07-22T07:12:04;11.00;;;6.53;;
54177;SDS011;40085;53.004;6.770;2023-07-22T07:14:30;12.93;;;6.88;;
54177;SDS011;40085;53.004;6.770;2023-07-22T07:16:55;11.95;;;6.35;;
54177;SDS011;40085;53.004;6.770;2023-07-22T07:19:21;9.85;;;5.97;;
54177;SDS011;40085;53.004;6.770;2023-07-22T07:21:47;12.80;;;6.32;;
54177;SDS011;40085;53.004;6.770;2023-07-22T07:24:12;10.38;;;5.20;;
54177;SDS011;40085;53.004;6.770;2023-07-22T07:26:38;13.45;;;6.13;;
54177;SDS011;40085;53.004;6.770;2023-07-22T07:29:04;9.32;;;5.65;;
54177;SDS011;40085;53.004;6.770;2023-07-22T07:31:29;8.63;;;5.28;;
54177;SDS011;40085;53.004;6.770;2023-07-22T07:33:55;8.90;;;5.65;;
54177;SDS011;40085;53.004;6.770;2023-07-22T07:36:21;9.00;;;5.50;;
54177;SDS011;40085;53.004;6.770;2023-07-22T07:38:46;9.25;;;5.13;;
54177;SDS011;40085;53.004;6.770;2023-07-22T07:41:12;8.95;;;5.57;;
54177;SDS011;40085;53.004;6.770;2023-07-22T07:43:39;10.40;;;5.90;;
54177;SDS011;40085;53.004;6.770;2023-07-22T07:46:11;7.90;;;5.00;;
54177;SDS011;40085;53.004;6.770;2023-07-22T07:51:16;8.50;;;5.47;;
54177;SDS011;40085;53.004;6.770;2023-07-22T07:53:43;9.57;;;5.55;;
54177;SDS011;40085;53.004;6.770;2023-07-22T07:56:09;10.43;;;5.38;;
54177;SDS011;40085;53.004;6.770;2023-07-22T07:58:36;8.52;;;5.25;;
54177;SDS011;40085;53.004;6.770;2023-07-22T08:01:02;8.85;;;4.88;;
54177;SDS011;40085;53.004;6.770;2023-07-22T08:03:28;11.55;;;5.28;;
54177;SDS011;40085;53.004;6.770;2023-07-22T08:05:54;8.73;;;4.70;;
54177;SDS011;40085;53.004;6.770;2023-07-22T08:08:21;11.80;;;5.43;;
54177;SDS011;40085;53.004;6.770;2023-07-22T08:10:56;10.95;;;5.40;;
54177;SDS011;40085;53.004;6.770;2023-07-22T08:13:25;10.30;;;5.95;;
54177;SDS011;40085;53.004;6.770;2023-07-22T08:15:52;10.10;;;5.93;;
54177;SDS011;40085;53.004;6.770;2023-07-22T08:18:18;7.85;;;4.43;;
54177;SDS011;40085;53.004;6.770;2023-07-22T08:20:44;8.13;;;4.55;;
54177;SDS011;40085;53.004;6.770;2023-07-22T08:23:12;7.10;;;4.70;;
54177;SDS011;40085;53.004;6.770;2023-07-22T08:25:37;6.90;;;4.60;;
54177;SDS011;40085;53.004;6.770;2023-07-22T08:28:03;7.10;;;4.32;;
54177;SDS011;40085;53.004;6.770;2023-07-22T08:30:29;9.20;;;4.88;;
54177;SDS011;40085;53.004;6.770;2023-07-22T08:32:54;11.40;;;5.43;;
54177;SDS011;40085;53.004;6.770;2023-07-22T08:35:20;7.90;;;5.20;;
54177;SDS011;40085;53.004;6.770;2023-07-22T08:37:47;10.45;;;5.35;;
54177;SDS011;40085;53.004;6.770;2023-07-22T08:40:13;9.20;;;4.88;;
54177;SDS011;40085;53.004;6.770;2023-07-22T08:42:39;9.70;;;5.20;;
54177;SDS011;40085;53.004;6.770;2023-07-22T08:45:06;10.13;;;5.32;;
54177;SDS011;40085;53.004;6.770;2023-07-22T08:47:34;8.27;;;4.90;;
54177;SDS011;40085;53.004;6.770;2023-07-22T08:50:03;9.80;;;5.55;;
54177;SDS011;40085;53.004;6.770;2023-07-22T08:52:32;11.27;;;5.80;;
54177;SDS011;40085;53.004;6.770;2023-07-22T08:54:59;9.20;;;5.18;;
54177;SDS011;40085;53.004;6.770;2023-07-22T08:57:26;9.02;;;5.82;;
54177;SDS011;40085;53.004;6.770;2023-07-22T08:59:54;11.75;;;5.72;;
54177;SDS011;40085;53.004;6.770;2023-07-22T09:02:19;11.77;;;5.38;;
54177;SDS011;40085;53.004;6.770;2023-07-22T09:04:46;9.30;;;5.60;;
54177;SDS011;40085;53.004;6.770;2023-07-22T09:07:11;9.68;;;5.05;;
54177;SDS011;40085;53.004;6.770;2023-07-22T09:09:39;9.23;;;5.55;;
54177;SDS011;40085;53.004;6.770;2023-07-22T09:12:06;10.25;;;5.97;;
54177;SDS011;40085;53.004;6.770;2023-07-22T09:14:32;11.70;;;6.30;;
54177;SDS011;40085;53.004;6.770;2023-07-22T09:16:59;8.27;;;5.07;;
54177;SDS011;40085;53.004;6.770;2023-07-22T09:19:24;9.43;;;5.63;;
54177;SDS011;40085;53.004;6.770;2023-07-22T09:21:51;14.32;;;6.20;;
54177;SDS011;40085;53.004;6.770;2023-07-22T09:24:21;10.55;;;5.40;;
54177;SDS011;40085;53.004;6.770;2023-07-22T09:26:48;10.43;;;4.97;;
54177;SDS011;40085;53.004;6.770;2023-07-22T09:29:13;13.38;;;5.47;;
54177;SDS011;40085;53.004;6.770;2023-07-22T09:31:49;8.57;;;5.30;;
54177;SDS011;40085;53.004;6.770;2023-07-22T09:34:16;8.95;;;4.68;;
54177;SDS011;40085;53.004;6.770;2023-07-22T09:36:52;11.35;;;5.57;;
54177;SDS011;40085;53.004;6.770;2023-07-22T09:39:28;7.28;;;4.85;;
54177;SDS011;40085;53.004;6.770;2023-07-22T09:41:54;8.82;;;5.18;;
54177;SDS011;40085;53.004;6.770;2023-07-22T09:44:20;9.05;;;5.28;;
54177;SDS011;40085;53.004;6.770;2023-07-22T09:46:53;11.10;;;4.85;;
54177;SDS011;40085;53.004;6.770;2023-07-22T09:49:19;9.10;;;4.95;;
54177;SDS011;40085;53.004;6.770;2023-07-22T09:51:45;7.05;;;4.30;;
54177;SDS011;40085;53.004;6.770;2023-07-22T09:54:11;10.45;;;4.45;;
54177;SDS011;40085;53.004;6.770;2023-07-22T09:56:43;7.47;;;4.10;;
54177;SDS011;40085;53.004;6.770;2023-07-22T09:59:11;7.18;;;4.53;;
54177;SDS011;40085;53.004;6.770;2023-07-22T10:01:40;10.63;;;4.00;;
54177;SDS011;40085;53.004;6.770;2023-07-22T10:04:06;5.55;;;3.45;;
54177;SDS011;40085;53.004;6.770;2023-07-22T10:06:33;7.40;;;3.70;;
54177;SDS011;40085;53.004;6.770;2023-07-22T10:09:03;9.00;;;3.53;;
54177;SDS011;40085;53.004;6.770;2023-07-22T10:11:33;5.85;;;3.35;;
54177;SDS011;40085;53.004;6.770;2023-07-22T10:14:02;4.78;;;2.85;;
54177;SDS011;40085;53.004;6.770;2023-07-22T10:16:27;5.35;;;3.10;;
54177;SDS011;40085;53.004;6.770;2023-07-22T10:18:53;5.55;;;2.88;;
54177;SDS011;40085;53.004;6.770;2023-07-22T10:21:20;7.78;;;2.97;;
54177;SDS011;40085;53.004;6.770;2023-07-22T10:23:46;4.40;;;2.80;;
54177;SDS011;40085;53.004;6.770;2023-07-22T10:26:16;4.57;;;2.60;;
54177;SDS011;40085;53.004;6.770;2023-07-22T10:28:43;5.15;;;2.67;;
54177;SDS011;40085;53.004;6.770;2023-07-22T10:31:10;3.72;;;1.92;;
54177;SDS011;40085;53.004;6.770;2023-07-22T10:33:37;4.93;;;2.40;;
54177;SDS011;40085;53.004;6.770;2023-07-22T10:38:34;5.68;;;2.35;;
54177;SDS011;40085;53.004;6.770;2023-07-22T10:41:00;3.75;;;2.30;;
54177;SDS011;40085;53.004;6.770;2023-07-22T10:43:26;4.05;;;2.30;;
54177;SDS011;40085;53.004;6.770;2023-07-22T10:45:56;4.53;;;2.17;;
54177;SDS011;40085;53.004;6.770;2023-07-22T10:48:26;3.05;;;1.85;;
54177;SDS011;40085;53.004;6.770;2023-07-22T10:50:54;4.80;;;2.17;;
54177;SDS011;40085;53.004;6.770;2023-07-22T10:56:08;4.65;;;2.15;;
54177;SDS011;40085;53.004;6.770;2023-07-22T11:01:21;3.35;;;1.98;;
54177;SDS011;40085;53.004;6.770;2023-07-22T11:04:03;4.47;;;2.60;;
54177;SDS011;40085;53.004;6.770;2023-07-22T11:06:36;4.03;;;2.10;;
54177;SDS011;40085;53.004;6.770;2023-07-22T11:09:04;5.00;;;2.95;;
54177;SDS011;40085;53.004;6.770;2023-07-22T11:11:40;5.25;;;2.78;;
54177;SDS011;40085;53.004;6.770;2023-07-22T11:14:13;4.65;;;2.70;;
54177;SDS011;40085;53.004;6.770;2023-07-22T11:16:40;8.07;;;3.17;;
54177;SDS011;40085;53.004;6.770;2023-07-22T11:19:08;7.18;;;2.95;;
54177;SDS011;40085;53.004;6.770;2023-07-22T11:21:33;9.27;;;3.45;;
54177;SDS011;40085;53.004;6.770;2023-07-22T11:23:59;6.63;;;3.17;;
54177;SDS011;40085;53.004;6.770;2023-07-22T11:26:24;6.93;;;3.72;;
54177;SDS011;40085;53.004;6.770;2023-07-22T11:28:50;6.82;;;3.88;;
54177;SDS011;40085;53.004;6.770;2023-07-22T11:31:18;6.78;;;4.10;;
54177;SDS011;40085;53.004;6.770;2023-07-22T11:33:43;6.25;;;4.38;;
54177;SDS011;40085;53.004;6.770;2023-07-22T11:36:11;7.82;;;4.15;;
54177;SDS011;40085;53.004;6.770;2023-07-22T11:38:38;6.55;;;4.68;;
54177;SDS011;40085;53.004;6.770;2023-07-22T11:41:04;6.85;;;4.25;;
54177;SDS011;40085;53.004;6.770;2023-07-22T11:43:30;7.97;;;4.80;;
54177;SDS011;40085;53.004;6.770;2023-07-22T11:45:56;7.82;;;4.28;;
54177;SDS011;40085;53.004;6.770;2023-07-22T11:48:22;8.32;;;4.72;;
54177;SDS011;40085;53.004;6.770;2023-07-22T11:50:48;8.02;;;4.60;;
54177;SDS011;40085;53.004;6.770;2023-07-22T11:53:13;8.35;;;4.85;;
54177;SDS011;40085;53.004;6.770;2023-07-22T11:55:40;8.82;;;4.95;;
54177;SDS011;40085;53.004;6.770;2023-07-22T11:58:07;9.43;;;5.40;;
54177;SDS011;40085;53.004;6.770;2023-07-22T12:00:34;7.93;;;5.22;;
54177;SDS011;40085;53.004;6.770;2023-07-22T12:03:05;7.45;;;4.97;;
54177;SDS011;40085;53.004;6.770;2023-07-22T12:05:31;7.30;;;4.70;;
54177;SDS011;40085;53.004;6.770;2023-07-22T12:08:00;9.82;;;5.40;;
54177;SDS011;40085;53.004;6.770;2023-07-22T12:10:29;8.27;;;6.05;;
54177;SDS011;40085;53.004;6.770;2023-07-22T12:12:54;8.75;;;5.63;;
54177;SDS011;40085;53.004;6.770;2023-07-22T12:15:25;8.32;;;5.40;;
54177;SDS011;40085;53.004;6.770;2023-07-22T12:17:52;7.85;;;5.15;;
54177;SDS011;40085;53.004;6.770;2023-07-22T12:20:23;7.63;;;4.90;;
54177;SDS011;40085;53.004;6.770;2023-07-22T12:22:58;7.90;;;4.80;;
54177;SDS011;40085;53.004;6.770;2023-07-22T12:25:24;7.25;;;4.45;;
54177;SDS011;40085;53.004;6.770;2023-07-22T12:27:50;6.45;;;4.45;;
54177;SDS011;40085;53.004;6.770;2023-07-22T12:30:16;7.25;;;4.25;;
54177;SDS011;40085;53.004;6.770;2023-07-22T12:32:42;7.82;;;4.07;;
54177;SDS011;40085;53.004;6.770;2023-07-22T12:35:08;6.32;;;4.03;;
54177;SDS011;40085;53.004;6.770;2023-07-22T12:37:34;6.50;;;4.15;;
54177;SDS011;40085;53.004;6.770;2023-07-22T12:40:00;6.20;;;4.20;;
54177;SDS011;40085;53.004;6.770;2023-07-22T12:42:26;8.02;;;4.32;;
54177;SDS011;40085;53.004;6.770;2023-07-22T12:44:52;7.03;;;4.68;;
54177;SDS011;40085;53.004;6.770;2023-07-22T12:47:17;7.97;;;4.22;;
54177;SDS011;40085;53.004;6.770;2023-07-22T12:49:43;8.10;;;4.45;;
54177;SDS011;40085;53.004;6.770;2023-07-22T12:52:09;6.82;;;4.03;;
54177;SDS011;40085;53.004;6.770;2023-07-22T12:54:35;6.45;;;4.25;;
54177;SDS011;40085;53.004;6.770;2023-07-22T12:57:01;7.65;;;5.20;;
54177;SDS011;40085;53.004;6.770;2023-07-22T12:59:27;7.97;;;4.75;;
54177;SDS011;40085;53.004;6.770;2023-07-22T13:01:52;8.90;;;5.38;;
54177;SDS011;40085;53.004;6.770;2023-07-22T13:04:18;7.95;;;4.95;;
54177;SDS011;40085;53.004;6.770;2023-07-22T13:06:44;7.28;;;5.57;;
54177;SDS011;40085;53.004;6.770;2023-07-22T13:09:10;7.47;;;5.28;;
54177;SDS011;40085;53.004;6.770;2023-07-22T13:11:35;8.38;;;6.05;;
54177;SDS011;40085;53.004;6.770;2023-07-22T13:14:01;8.85;;;5.60;;
54177;SDS011;40085;53.004;6.770;2023-07-22T13:16:27;9.77;;;5.72;;
54177;SDS011;40085;53.004;6.770;2023-07-22T13:18:53;9.45;;;6.35;;
54177;SDS011;40085;53.004;6.770;2023-07-22T13:21:19;8.95;;;6.15;;
54177;SDS011;40085;53.004;6.770;2023-07-22T13:23:44;9.60;;;6.22;;
54177;SDS011;40085;53.004;6.770;2023-07-22T13:26:10;9.15;;;5.90;;
54177;SDS011;40085;53.004;6.770;2023-07-22T13:28:35;9.95;;;6.97;;
54177;SDS011;40085;53.004;6.770;2023-07-22T13:31:01;10.05;;;7.00;;
54177;SDS011;40085;53.004;6.770;2023-07-22T13:33:26;9.00;;;6.13;;
54177;SDS011;40085;53.004;6.770;2023-07-22T13:35:52;9.20;;;6.82;;
54177;SDS011;40085;53.004;6.770;2023-07-22T13:38:18;7.88;;;5.55;;
54177;SDS011;40085;53.004;6.770;2023-07-22T13:40:43;9.52;;;5.78;;
54177;SDS011;40085;53.004;6.770;2023-07-22T13:43:09;8.88;;;6.32;;
54177;SDS011;40085;53.004;6.770;2023-07-22T13:45:35;9.02;;;5.57;;
54177;SDS011;40085;53.004;6.770;2023-07-22T13:48:00;10.02;;;5.50;;
54177;SDS011;40085;53.004;6.770;2023-07-22T13:50:26;7.38;;;5.20;;
54177;SDS011;40085;53.004;6.770;2023-07-22T13:52:52;6.97;;;5.40;;
54177;SDS011;40085;53.004;6.770;2023-07-22T13:55:18;6.95;;;4.93;;
54177;SDS011;40085;53.004;6.770;2023-07-22T13:57:43;7.85;;;5.35;;
54177;SDS011;40085;53.004;6.770;2023-07-22T14:00:09;7.28;;;4.57;;
54177;SDS011;40085;53.004;6.770;2023-07-22T14:02:35;6.85;;;4.50;;
54177;SDS011;40085;53.004;6.770;2023-07-22T14:05:02;7.07;;;3.78;;
54177;SDS011;40085;53.004;6.770;2023-07-22T14:07:28;5.82;;;4.20;;
54177;SDS011;40085;53.004;6.770;2023-07-22T14:09:53;5.28;;;3.65;;
54177;SDS011;40085;53.004;6.770;2023-07-22T14:12:19;5.63;;;3.30;;
54177;SDS011;40085;53.004;6.770;2023-07-22T14:14:45;6.57;;;3.30;;
54177;SDS011;40085;53.004;6.770;2023-07-22T14:17:11;4.68;;;3.03;;
54177;SDS011;40085;53.004;6.770;2023-07-22T14:19:37;4.30;;;3.10;;
54177;SDS011;40085;53.004;6.770;2023-07-22T14:22:02;5.20;;;2.90;;
54177;SDS011;40085;53.004;6.770;2023-07-22T14:24:29;4.47;;;3.13;;
54177;SDS011;40085;53.004;6.770;2023-07-22T14:26:54;6.50;;;3.47;;
54177;SDS011;40085;53.004;6.770;2023-07-22T14:29:20;4.85;;;3.63;;
54177;SDS011;40085;53.004;6.770;2023-07-22T14:31:46;4.88;;;3.35;;
54177;SDS011;40085;53.004;6.770;2023-07-22T14:34:12;6.07;;;3.60;;
54177;SDS011;40085;53.004;6.770;2023-07-22T14:36:37;6.65;;;3.80;;
54177;SDS011;40085;53.004;6.770;2023-07-22T14:39:03;6.38;;;3.65;;
54177;SDS011;40085;53.004;6.770;2023-07-22T14:41:29;9.52;;;4.25;;
54177;SDS011;40085;53.004;6.770;2023-07-22T14:43:55;7.20;;;3.85;;
54177;SDS011;40085;53.004;6.770;2023-07-22T14:46:21;6.82;;;4.15;;
54177;SDS011;40085;53.004;6.770;2023-07-22T14:48:47;7.78;;;4.10;;